Time;durP1;ratioP1;P1;durP2;ratioP2;P2;SDS_P1;SDS_P2;PMS_P1;PMS_P2;Temp;Humidity;BMP_temperature;BMP_pressure;BME280_temperature;BME280_humidity;BME280_pressure;Samples;Min_cycle;Max_cycle;Signal;HPM_P1;HPM_P2
2022/04/12 12:13:06;;;;;;;13.98;9.35;;;17.40;99.90;;;;;;3774507;37;20051;-64
2022/04/12 12:15:34;;;;;;;13.38;9.35;;;18.40;99.90;;;;;;4370647;32;20070;-64
2022/04/12 12:18:06;;;;;;;17.52;8.88;;;18.10;99.90;;;;;;4372634;32;20141;-64
2022/04/12 12:20:37;;;;;;;14.40;8.90;;;18.60;98.50;;;;;;4366999;32;20105;-66
2022/04/12 12:23:11;;;;;;;13.35;8.40;;;18.20;99.90;;;;;;4346702;32;20830;-63
2022/04/12 12:25:40;;;;;;;15.63;8.55;;;18.10;98.90;;;;;;4369479;32;20059;-66
2022/04/12 12:28:18;;;;;;;17.02;9.50;;;17.40;97.60;;;;;;4364645;32;20155;-65
2022/04/12 12:30:47;;;;;;;12.75;8.95;;;17.40;97.60;;;;;;4364888;32;20193;-63
2022/04/12 12:33:14;;;;;;;12.00;7.62;;;17.80;97.20;;;;;;4346518;32;20135;-65
2022/04/12 12:35:48;;;;;;;15.32;8.05;;;17.90;96.50;;;;;;4362583;32;20077;-64
2022/04/12 12:38:17;;;;;;;11.10;8.10;;;18.00;96.40;;;;;;4370279;32;20068;-64
2022/04/12 12:40:45;;;;;;;10.23;7.60;;;18.00;96.10;;;;;;4358982;32;20118;-64
2022/04/12 12:43:14;;;;;;;10.15;7.70;;;17.70;96.40;;;;;;4361974;32;20490;-64
2022/04/12 12:45:45;;;;;;;12.57;8.35;;;17.50;96.40;;;;;;4352901;32;20102;-64
2022/04/12 12:48:15;;;;;;;11.73;8.23;;;17.30;97.10;;;;;;4356366;32;20198;-65
2022/04/12 12:53:26;;;;;;;15.65;7.40;;;17.20;96.80;;;;;;3797667;37;20071;-63
2022/04/12 12:55:52;;;;;;;18.02;7.85;;;17.50;96.70;;;;;;4366250;32;20084;-65
2022/04/12 12:58:21;;;;;;;10.65;7.37;;;17.60;97.00;;;;;;4372912;32;20077;-64
2022/04/12 13:00:48;;;;;;;12.43;7.55;;;17.40;96.60;;;;;;4366168;32;20101;-63
2022/04/12 13:03:16;;;;;;;13.95;8.50;;;17.30;97.70;;;;;;4377255;32;20185;-64
2022/04/12 13:05:59;;;;;;;23.62;9.63;;;17.20;97.60;;;;;;4356706;32;20122;-63
2022/04/12 13:08:29;;;;;;;13.55;8.40;;;17.20;97.40;;;;;;4360048;32;20309;-63
2022/04/12 13:11:00;;;;;;;12.80;7.80;;;17.30;97.80;;;;;;4364046;32;20616;-64
2022/04/12 13:13:27;;;;;;;13.90;7.68;;;17.40;97.30;;;;;;4350447;32;20507;-64
2022/04/12 13:15:54;;;;;;;14.50;8.60;;;17.40;97.60;;;;;;4356260;32;20082;-62
2022/04/12 13:18:23;;;;;;;13.48;7.55;;;17.40;96.90;;;;;;4371315;32;20074;-62
2022/04/12 13:20:49;;;;;;;12.68;8.02;;;17.30;96.80;;;;;;4360197;32;20114;-64
2022/04/12 13:23:15;;;;;;;14.73;8.77;;;17.20;97.10;;;;;;4361719;32;20609;-62
2022/04/12 13:25:42;;;;;;;12.13;8.77;;;17.20;96.90;;;;;;4365193;32;20151;-62
2022/04/12 13:30:49;;;;;;;13.77;8.32;;;17.20;97.00;;;;;;3790279;37;20161;-62
2022/04/12 13:33:16;;;;;;;12.65;8.23;;;17.30;98.40;;;;;;4368815;32;20533;-64
2022/04/12 13:35:42;;;;;;;17.65;9.40;;;17.10;98.00;;;;;;4384992;32;20103;-63
2022/04/12 13:38:08;;;;;;;18.05;10.07;;;17.00;98.10;;;;;;4363788;32;20104;-62
2022/04/12 13:40:34;;;;;;;18.10;9.15;;;17.00;98.10;;;;;;4344454;32;20586;-63
2022/04/12 13:43:03;;;;;;;14.07;8.68;;;16.90;98.50;;;;;;4356005;32;20078;-63
2022/04/12 13:45:29;;;;;;;13.15;7.90;;;16.90;98.70;;;;;;4354700;32;20625;-64
2022/04/12 13:47:56;;;;;;;11.20;7.87;;;17.00;98.50;;;;;;4353180;32;20109;-62
2022/04/12 13:50:22;;;;;;;12.73;8.02;;;16.60;99.50;;;;;;4358715;32;20570;-63
2022/04/12 13:52:49;;;;;;;11.35;7.75;;;16.60;99.90;;;;;;4348460;32;20192;-62
2022/04/12 13:55:16;;;;;;;11.82;7.65;;;16.50;99.50;;;;;;4364444;32;20061;-64
2022/04/12 13:57:44;;;;;;;12.90;8.07;;;16.50;99.70;;;;;;4367735;32;20117;-62
2022/04/12 14:00:11;;;;;;;12.35;8.32;;;16.50;99.90;;;;;;4352964;32;20628;-64
2022/04/12 14:02:37;;;;;;;12.68;7.70;;;16.40;99.90;;;;;;4367769;32;20096;-63
2022/04/12 14:05:04;;;;;;;14.55;8.27;;;16.40;99.90;;;;;;4378450;32;20070;-63
2022/04/12 14:07:30;;;;;;;11.35;7.85;;;16.40;99.90;;;;;;4370333;32;20138;-63
2022/04/12 14:09:57;;;;;;;11.20;7.80;;;16.30;99.90;;;;;;4346780;32;21100;-64
2022/04/12 14:12:23;;;;;;;18.17;7.47;;;16.30;99.90;;;;;;4365350;32;20153;-65
2022/04/12 14:14:49;;;;;;;12.65;7.60;;;16.50;99.90;;;;;;4380352;32;20071;-64
2022/04/12 14:17:16;;;;;;;16.17;8.05;;;16.30;99.90;;;;;;4344220;32;20122;-64
2022/04/12 14:19:42;;;;;;;11.80;7.35;;;16.30;99.90;;;;;;4344911;32;20106;-63
2022/04/12 14:22:09;;;;;;;9.38;7.12;;;16.20;99.90;;;;;;4333132;32;20144;-63
2022/04/12 14:27:12;;;;;;;14.75;6.85;;;16.20;99.90;;;;;;3814453;37;21386;-61
2022/04/12 14:29:40;;;;;;;10.32;6.82;;;16.20;99.90;;;;;;4360793;32;20113;-63
2022/04/12 14:34:25;;;;;;;15.10;7.12;;;16.00;99.90;;;;;;3835531;37;20054;-61
2022/04/12 14:36:51;;;;;;;13.90;6.55;;;15.80;99.90;;;;;;4400780;32;20132;-63
2022/04/12 14:39:18;;;;;;;17.30;7.55;;;15.80;99.90;;;;;;4381266;32;20077;-65
2022/04/12 14:41:45;;;;;;;9.90;6.25;;;15.80;99.90;;;;;;4378928;32;20096;-62
2022/04/12 14:44:11;;;;;;;8.95;6.35;;;15.70;99.90;;;;;;4368633;32;20117;-63
2022/04/12 14:46:42;;;;;;;15.27;7.47;;;15.60;99.90;;;;;;4393972;32;20084;-63
2022/04/12 14:49:08;;;;;;;10.93;7.32;;;15.60;99.90;;;;;;4380299;32;20093;-63
2022/04/12 14:51:34;;;;;;;13.05;6.55;;;15.60;99.90;;;;;;4363926;32;20081;-64
2022/04/12 14:54:01;;;;;;;14.00;6.82;;;15.50;99.90;;;;;;4387712;32;20058;-62
2022/04/12 14:56:27;;;;;;;14.32;7.80;;;15.60;99.90;;;;;;4404725;32;20074;-63
2022/04/12 14:58:54;;;;;;;20.48;7.15;;;15.50;99.90;;;;;;4379746;32;20069;-63
2022/04/12 15:01:20;;;;;;;12.50;7.12;;;15.50;99.90;;;;;;4402744;32;20077;-64
2022/04/12 15:03:46;;;;;;;11.88;6.78;;;15.40;99.90;;;;;;4378493;32;20071;-62
2022/04/12 15:06:15;;;;;;;16.30;7.07;;;15.40;99.90;;;;;;4388689;32;20059;-69
2022/04/12 15:08:42;;;;;;;13.45;6.93;;;15.50;99.90;;;;;;4371357;32;20121;-66
2022/04/12 15:11:08;;;;;;;11.77;6.43;;;15.40;99.90;;;;;;4370339;32;20539;-72
2022/04/12 15:13:35;;;;;;;11.20;6.47;;;15.20;99.90;;;;;;4379424;32;20219;-62
2022/04/12 15:16:02;;;;;;;12.13;6.30;;;15.20;99.90;;;;;;4371028;32;20186;-66
2022/04/12 15:18:29;;;;;;;12.30;6.03;;;15.10;99.90;;;;;;4390270;32;20085;-65
2022/04/12 15:20:55;;;;;;;11.73;6.37;;;15.10;99.90;;;;;;4389240;32;20154;-65
2022/04/12 15:23:21;;;;;;;10.52;6.07;;;15.00;99.90;;;;;;4388847;32;20599;-65
2022/04/12 15:25:48;;;;;;;9.40;6.22;;;14.90;99.90;;;;;;4374947;32;20078;-64
2022/04/12 15:28:14;;;;;;;8.55;5.62;;;14.80;99.90;;;;;;4390089;32;20092;-65
2022/04/12 15:30:41;;;;;;;13.60;6.65;;;14.80;99.90;;;;;;4388634;32;20093;-65
2022/04/12 15:33:07;;;;;;;11.73;5.90;;;14.80;99.90;;;;;;4388174;32;20100;-64
2022/04/12 15:35:34;;;;;;;19.67;6.82;;;14.70;99.90;;;;;;4374867;32;20090;-64
2022/04/12 15:38:02;;;;;;;9.90;6.20;;;14.70;99.90;;;;;;4374920;32;20164;-64
2022/04/12 15:40:31;;;;;;;18.10;6.62;;;14.70;99.90;;;;;;4387945;32;20086;-66
2022/04/12 15:42:58;;;;;;;12.25;6.28;;;14.60;99.90;;;;;;4387374;32;20121;-65
2022/04/12 15:45:25;;;;;;;10.68;7.10;;;14.60;99.90;;;;;;4378384;32;20143;-64
2022/04/12 15:47:52;;;;;;;10.18;6.10;;;14.60;99.90;;;;;;4352775;32;20078;-65
2022/04/12 15:50:19;;;;;;;14.77;6.82;;;14.60;99.90;;;;;;4365399;32;20492;-63
2022/04/12 15:52:48;;;;;;;12.13;6.18;;;14.50;99.90;;;;;;4364649;32;20090;-65
2022/04/12 15:55:19;;;;;;;13.77;6.32;;;14.40;99.90;;;;;;4352628;32;20158;-64
2022/04/12 15:57:47;;;;;;;14.65;6.68;;;14.50;99.90;;;;;;4365174;32;20080;-64
2022/04/12 16:00:15;;;;;;;12.30;6.70;;;14.50;99.90;;;;;;4364460;32;20113;-65
2022/04/12 16:02:42;;;;;;;15.43;6.90;;;14.50;99.90;;;;;;4378345;32;20065;-65
2022/04/12 16:05:09;;;;;;;7.60;5.78;;;14.50;99.90;;;;;;4378414;32;20166;-65
2022/04/12 16:07:36;;;;;;;16.30;7.18;;;14.40;99.90;;;;;;4365040;32;20458;-64
2022/04/12 16:10:04;;;;;;;11.57;6.53;;;14.80;99.90;;;;;;4378475;32;20074;-65
2022/04/12 16:12:30;;;;;;;12.80;6.45;;;14.60;99.90;;;;;;4364136;32;20166;-63
2022/04/12 16:14:57;;;;;;;11.70;6.07;;;14.70;99.90;;;;;;4378832;32;20059;-64
2022/04/12 16:17:23;;;;;;;12.85;6.32;;;14.20;99.90;;;;;;4377086;32;20161;-64
2022/04/12 16:19:51;;;;;;;14.63;6.40;;;14.60;99.90;;;;;;4378200;32;20503;-64
2022/04/12 16:22:18;;;;;;;11.30;6.68;;;14.30;99.90;;;;;;4377745;32;20074;-64
2022/04/12 16:24:44;;;;;;;12.40;6.30;;;14.90;99.90;;;;;;4364008;32;20071;-65
2022/04/12 16:27:11;;;;;;;14.18;6.65;;;14.60;99.90;;;;;;4364313;32;20078;-65
2022/04/12 16:29:37;;;;;;;9.63;6.85;;;14.50;99.90;;;;;;4376917;32;20074;-65
2022/04/12 16:32:04;;;;;;;12.07;6.43;;;14.20;99.90;;;;;;4376164;32;20065;-65
2022/04/12 16:34:30;;;;;;;12.52;6.20;;;14.30;99.90;;;;;;4364635;32;20098;-65
2022/04/12 16:36:57;;;;;;;13.98;6.90;;;14.10;99.90;;;;;;4351821;32;20467;-65
2022/04/12 16:39:23;;;;;;;14.40;7.10;;;14.00;99.90;;;;;;4364019;32;20162;-64
2022/04/12 16:41:49;;;;;;;12.48;7.32;;;14.00;99.90;;;;;;4376389;32;20508;-64
2022/04/12 16:44:16;;;;;;;11.85;7.30;;;13.90;99.90;;;;;;4377750;32;20145;-63
2022/04/12 16:46:42;;;;;;;15.32;7.47;;;13.90;99.90;;;;;;4364352;32;20078;-65
2022/04/12 16:49:09;;;;;;;16.25;8.00;;;13.80;99.90;;;;;;4377718;32;20222;-64
2022/04/12 16:51:35;;;;;;;20.60;8.82;;;13.70;99.90;;;;;;4377871;32;20526;-64
2022/04/12 16:54:03;;;;;;;23.52;8.25;;;13.70;99.90;;;;;;4377280;32;20164;-65
2022/04/12 16:56:29;;;;;;;16.52;8.13;;;13.70;99.90;;;;;;4363150;32;20078;-65
2022/04/12 16:58:57;;;;;;;13.55;7.85;;;13.60;99.90;;;;;;4363898;32;20075;-65
2022/04/12 17:01:23;;;;;;;14.02;8.20;;;13.70;99.90;;;;;;4363654;32;20082;-63
2022/04/12 17:03:50;;;;;;;13.02;8.57;;;13.80;99.90;;;;;;4363740;32;20078;-64
2022/04/12 17:06:16;;;;;;;15.05;7.97;;;;;;;;;;4363521;32;20460;-63
2022/04/12 17:08:42;;;;;;;16.08;7.82;;;13.90;99.90;;;;;;4364404;32;20130;-65
2022/04/12 17:11:09;;;;;;;16.80;8.75;;;;;;;;;;4377470;32;20083;-64
2022/04/12 17:13:35;;;;;;;13.93;7.80;;;14.10;99.90;;;;;;4350682;32;20078;-66
2022/04/12 17:16:02;;;;;;;13.10;8.38;;;13.40;99.90;;;;;;4363684;32;20073;-63
2022/04/12 17:18:28;;;;;;;13.38;7.97;;;13.40;99.90;;;;;;4375875;32;20085;-64
2022/04/12 17:20:55;;;;;;;17.92;9.43;;;;;;;;;;4350589;32;20058;-66
2022/04/12 17:23:22;;;;;;;15.32;8.77;;;;;;;;;;4376897;32;20066;-65
2022/04/12 17:25:49;;;;;;;15.27;8.88;;;;;;;;;;4363309;32;20070;-64
2022/04/12 17:28:16;;;;;;;15.75;8.82;;;;;;;;;;4362750;32;20541;-65
2022/04/12 17:30:43;;;;;;;16.15;8.77;;;;;;;;;;4362965;32;20078;-65
2022/04/12 17:33:10;;;;;;;16.58;8.88;;;13.20;99.90;;;;;;4376873;32;20082;-64
2022/04/12 17:35:39;;;;;;;18.23;9.73;;;13.40;99.90;;;;;;4363702;32;20080;-64
2022/04/12 17:38:07;;;;;;;21.37;8.68;;;13.30;99.90;;;;;;4363187;32;20172;-64
2022/04/12 17:40:33;;;;;;;15.40;8.90;;;13.30;99.90;;;;;;4377484;32;20512;-65
2022/04/12 17:43:00;;;;;;;16.00;10.00;;;12.80;99.90;;;;;;4364040;32;20166;-65
2022/04/12 17:45:26;;;;;;;13.77;8.90;;;;;;;;;;4377276;32;20074;-65
2022/04/12 17:47:53;;;;;;;18.60;8.73;;;;;;;;;;4376982;32;20097;-65
2022/04/12 17:50:20;;;;;;;17.77;8.55;;;;;;;;;;4363190;32;20134;-63
2022/04/12 17:52:46;;;;;;;12.57;8.60;;;13.70;99.90;;;;;;4362634;32;20441;-65
2022/04/12 17:55:14;;;;;;;14.40;8.65;;;;;;;;;;4350524;32;20092;-65
2022/04/12 17:57:41;;;;;;;11.43;8.57;;;;;;;;;;4376835;32;20076;-63
2022/04/12 18:00:08;;;;;;;11.80;8.93;;;;;;;;;;4377104;32;20080;-64
2022/04/12 18:02:35;;;;;;;15.93;9.65;;;;;;;;;;4362989;32;20188;-65
2022/04/12 18:05:02;;;;;;;13.88;8.85;;;;;;;;;;4350395;32;20099;-63
2022/04/12 18:07:30;;;;;;;15.82;8.48;;;;;;;;;;4363101;32;20178;-65
2022/04/12 18:09:57;;;;;;;15.68;7.82;;;;;;;;;;4362659;32;20155;-64
2022/04/12 18:12:23;;;;;;;9.88;7.62;;;13.30;99.90;;;;;;4376867;32;20533;-65
2022/04/12 18:14:49;;;;;;;10.07;7.30;;;13.30;99.90;;;;;;4375386;32;20159;-64
2022/04/12 18:17:16;;;;;;;11.38;7.35;;;13.30;99.90;;;;;;4384266;32;20086;-64
2022/04/12 18:19:43;;;;;;;12.85;7.75;;;13.20;99.90;;;;;;4365656;32;20606;-64
2022/04/12 18:22:10;;;;;;;12.07;8.13;;;13.20;99.90;;;;;;4376724;32;20086;-65
2022/04/12 18:24:36;;;;;;;14.70;8.23;;;13.20;99.90;;;;;;4362723;32;20116;-65
2022/04/12 18:27:04;;;;;;;10.85;8.00;;;13.20;99.90;;;;;;4376530;32;20163;-63
2022/04/12 18:29:31;;;;;;;15.32;8.48;;;13.20;99.90;;;;;;4362160;32;20453;-64
2022/04/12 18:31:58;;;;;;;12.40;8.77;;;13.10;99.90;;;;;;4375344;32;20078;-64
2022/04/12 18:34:25;;;;;;;12.65;7.93;;;13.10;99.90;;;;;;4358997;32;20086;-64
2022/04/12 18:36:51;;;;;;;15.73;8.52;;;13.10;99.90;;;;;;4348183;33;20082;-65
2022/04/12 18:39:18;;;;;;;15.70;8.73;;;13.00;99.90;;;;;;4349650;32;20635;-64
2022/04/12 18:41:44;;;;;;;13.90;8.68;;;13.00;99.90;;;;;;4348783;33;20094;-64
2022/04/12 18:44:10;;;;;;;12.57;8.40;;;12.90;99.90;;;;;;4349946;32;20078;-65
2022/04/12 18:46:37;;;;;;;14.70;9.35;;;13.10;99.90;;;;;;4336914;33;20581;-65
2022/04/12 18:51:38;;;;;;;15.02;8.20;;;13.20;99.90;;;;;;3861419;37;20468;-65
2022/04/12 18:54:04;;;;;;;13.57;8.45;;;13.10;99.90;;;;;;4426754;32;20108;-64
2022/04/12 18:56:31;;;;;;;11.43;8.15;;;13.10;99.90;;;;;;4423861;32;20077;-64
2022/04/12 18:58:57;;;;;;;12.95;7.87;;;13.10;99.90;;;;;;4421178;32;20444;-65
2022/04/12 19:01:26;;;;;;;10.88;8.00;;;12.90;99.90;;;;;;4416396;32;20089;-65
2022/04/12 19:03:53;;;;;;;11.63;8.25;;;13.10;99.90;;;;;;4416458;32;20080;-65
2022/04/12 19:06:19;;;;;;;12.07;8.38;;;12.90;99.90;;;;;;4404418;32;20089;-65
2022/04/12 19:08:45;;;;;;;10.95;8.02;;;13.10;99.90;;;;;;4404721;32;20141;-64
2022/04/12 19:11:12;;;;;;;13.65;8.38;;;13.10;99.90;;;;;;4402769;32;20527;-65
2022/04/12 19:13:38;;;;;;;10.77;7.97;;;13.00;99.90;;;;;;4402948;32;20085;-65
2022/04/12 19:16:06;;;;;;;13.48;7.97;;;13.00;99.90;;;;;;4404399;32;20107;-65
2022/04/12 19:18:32;;;;;;;12.60;7.90;;;13.00;99.90;;;;;;4403024;32;20102;-64
2022/04/12 19:20:59;;;;;;;15.43;8.13;;;13.00;99.90;;;;;;4390225;32;20165;-65
2022/04/12 19:23:25;;;;;;;14.80;9.40;;;13.00;99.90;;;;;;4402894;32;20077;-65
2022/04/12 19:25:52;;;;;;;15.80;9.60;;;13.00;99.90;;;;;;4402635;32;20088;-65
2022/04/12 19:28:19;;;;;;;14.35;8.48;;;12.90;99.90;;;;;;4390054;32;20084;-65
2022/04/12 19:30:46;;;;;;;19.48;9.57;;;13.00;99.90;;;;;;4389825;32;20613;-63
2022/04/12 19:33:13;;;;;;;17.12;10.00;;;12.80;99.90;;;;;;4402649;32;20070;-64
2022/04/12 19:35:39;;;;;;;16.35;9.98;;;12.50;99.90;;;;;;4403301;32;20552;-65
2022/04/12 19:38:06;;;;;;;28.95;11.73;;;12.80;99.90;;;;;;4402841;32;20084;-65
2022/04/12 19:40:34;;;;;;;24.25;11.02;;;12.60;99.90;;;;;;4403353;32;20227;-65
2022/04/12 19:43:00;;;;;;;19.50;9.55;;;12.70;99.90;;;;;;4403840;32;20084;-65
2022/04/12 19:45:26;;;;;;;17.25;8.68;;;11.90;99.90;;;;;;4403972;32;20085;-64
2022/04/12 19:47:54;;;;;;;18.55;9.32;;;12.50;99.90;;;;;;4404218;32;20095;-64
2022/04/12 19:50:20;;;;;;;20.08;9.90;;;12.60;99.90;;;;;;4403356;32;20070;-64
2022/04/12 19:52:46;;;;;;;12.00;7.47;;;12.40;99.90;;;;;;4404093;32;20492;-64
2022/04/12 19:55:16;;;;;;;11.05;6.97;;;12.80;99.90;;;;;;4403710;32;20141;-65
2022/04/12 19:57:46;;;;;;;11.82;6.40;;;12.80;99.90;;;;;;4390078;32;20093;-64
2022/04/12 20:00:14;;;;;;;10.60;6.10;;;12.80;99.90;;;;;;4403144;32;20181;-65
2022/04/12 20:02:42;;;;;;;13.27;7.28;;;12.90;99.90;;;;;;4395471;32;20151;-65
2022/04/12 20:05:10;;;;;;;10.18;6.70;;;;;;;;;;4380357;32;20093;-65
2022/04/12 20:07:37;;;;;;;14.65;6.53;;;;;;;;;;4393620;32;20073;-63
2022/04/12 20:10:06;;;;;;;11.73;5.82;;;12.50;99.90;;;;;;4392281;32;20076;-65
2022/04/12 20:12:34;;;;;;;11.52;5.82;;;;;;;;;;4392449;32;20077;-64
2022/04/12 20:15:01;;;;;;;9.45;5.40;;;;;;;;;;4393394;32;20085;-64
2022/04/12 20:17:28;;;;;;;6.62;5.37;;;;;;;;;;4391979;32;20086;-65
2022/04/12 20:19:57;;;;;;;9.57;5.82;;;;;;;;;;4393381;32;20074;-64
2022/04/12 20:22:24;;;;;;;6.80;4.97;;;;;;;;;;4391616;32;20070;-65
2022/04/12 20:24:51;;;;;;;7.97;5.30;;;;;;;;;;4393651;32;20093;-65
2022/04/12 20:27:19;;;;;;;11.18;5.95;;;12.40;99.90;;;;;;4392309;32;20502;-63
2022/04/12 20:29:45;;;;;;;9.30;5.55;;;12.50;99.90;;;;;;4392797;32;20164;-65
2022/04/12 20:32:12;;;;;;;9.05;5.70;;;12.50;99.90;;;;;;4382007;32;20081;-64
2022/04/12 20:34:39;;;;;;;8.82;5.45;;;12.40;99.90;;;;;;4394030;32;20463;-65
2022/04/12 20:37:05;;;;;;;9.52;5.87;;;12.30;99.90;;;;;;4394472;32;20595;-63
2022/04/12 20:39:33;;;;;;;9.13;5.53;;;12.40;99.90;;;;;;4394334;32;20070;-64
2022/04/12 20:41:59;;;;;;;11.93;6.00;;;12.30;99.90;;;;;;4406410;32;20135;-64
2022/04/12 20:44:27;;;;;;;10.20;6.12;;;12.40;99.90;;;;;;4411029;32;20167;-64
2022/04/12 20:46:53;;;;;;;8.32;5.80;;;12.40;99.90;;;;;;4409728;32;20069;-65
2022/04/12 20:49:20;;;;;;;10.45;6.03;;;12.40;99.90;;;;;;4403899;32;20088;-65
2022/04/12 20:51:46;;;;;;;9.10;5.85;;;12.40;99.90;;;;;;4395094;32;20070;-64
2022/04/12 20:54:13;;;;;;;11.15;6.65;;;12.40;99.90;;;;;;4393426;32;20590;-65
2022/04/12 20:56:40;;;;;;;9.30;6.50;;;12.40;99.90;;;;;;4392483;32;20145;-64
2022/04/12 20:59:07;;;;;;;10.43;7.07;;;12.40;99.90;;;;;;4378819;32;20530;-65
2022/04/12 21:01:33;;;;;;;12.80;7.15;;;12.40;99.90;;;;;;4379546;32;20496;-64
2022/04/12 21:04:00;;;;;;;10.25;6.00;;;12.40;99.90;;;;;;4391490;32;20069;-64
2022/04/12 21:06:26;;;;;;;12.10;6.80;;;12.30;99.90;;;;;;4391523;32;20070;-64
2022/04/12 21:08:53;;;;;;;9.38;5.62;;;12.40;99.90;;;;;;4392947;32;20157;-65
2022/04/12 21:11:19;;;;;;;10.02;5.55;;;12.30;99.90;;;;;;4391617;32;20074;-64
2022/04/12 21:13:46;;;;;;;9.35;5.95;;;12.40;99.90;;;;;;4391974;32;20164;-63
2022/04/12 21:16:14;;;;;;;8.60;5.53;;;12.50;99.90;;;;;;4392589;32;20169;-65
2022/04/12 21:18:40;;;;;;;6.95;4.90;;;12.60;99.90;;;;;;4392364;32;20094;-64
2022/04/12 21:21:07;;;;;;;7.20;4.60;;;12.50;99.90;;;;;;4383851;32;20087;-66
2022/04/12 21:23:33;;;;;;;7.82;4.87;;;12.50;99.90;;;;;;4386950;32;20471;-65
2022/04/12 21:25:59;;;;;;;6.68;4.87;;;12.50;99.90;;;;;;4392245;32;20173;-64
2022/04/12 21:28:26;;;;;;;8.35;4.43;;;12.50;99.90;;;;;;4392302;32;20145;-65
2022/04/12 21:30:52;;;;;;;8.65;4.22;;;12.50;99.90;;;;;;4392363;32;20503;-64
2022/04/12 21:33:19;;;;;;;7.30;4.18;;;12.50;99.90;;;;;;4390739;32;20081;-64
2022/04/12 21:35:45;;;;;;;9.27;4.25;;;12.50;99.90;;;;;;4392725;32;20173;-64
2022/04/12 21:38:13;;;;;;;5.93;3.67;;;12.50;99.90;;;;;;4392136;32;20153;-65
2022/04/12 21:40:39;;;;;;;7.53;3.90;;;12.50;99.90;;;;;;4390568;32;20074;-64
2022/04/12 21:43:05;;;;;;;6.93;4.12;;;12.60;99.90;;;;;;4392289;32;20100;-65
2022/04/12 21:45:32;;;;;;;5.75;3.55;;;12.60;99.90;;;;;;4392013;32;20081;-65
2022/04/12 21:47:58;;;;;;;6.50;4.12;;;12.60;99.90;;;;;;4390953;32;20563;-64
2022/04/12 21:50:24;;;;;;;5.57;3.87;;;12.60;99.90;;;;;;4390362;32;20451;-65
2022/04/12 21:52:50;;;;;;;8.30;4.03;;;12.50;99.90;;;;;;4391919;32;20089;-65
2022/04/12 21:55:18;;;;;;;5.68;3.70;;;12.60;99.90;;;;;;4392089;32;20137;-64
2022/04/12 21:57:44;;;;;;;8.20;4.10;;;12.70;99.90;;;;;;4390564;32;20093;-64
2022/04/12 22:00:17;;;;;;;6.62;4.07;;;12.60;99.90;;;;;;4390709;32;20100;-65
2022/04/12 22:02:44;;;;;;;8.05;4.20;;;12.50;99.90;;;;;;4390980;32;20109;-65
2022/04/12 22:05:11;;;;;;;6.15;4.18;;;12.60;99.90;;;;;;4391658;32;20070;-65
2022/04/12 22:07:41;;;;;;;5.75;3.67;;;12.50;99.90;;;;;;4391837;32;20077;-66
2022/04/12 22:10:09;;;;;;;6.00;3.83;;;12.60;99.90;;;;;;4392006;32;20077;-65
2022/04/12 22:12:37;;;;;;;16.05;5.95;;;12.60;99.90;;;;;;4391712;32;20081;-64
2022/04/12 22:15:08;;;;;;;7.95;4.90;;;12.50;99.90;;;;;;4377615;32;20433;-64
2022/04/12 22:17:35;;;;;;;15.35;5.12;;;12.50;99.90;;;;;;4390814;32;20061;-65
2022/04/12 22:20:02;;;;;;;12.77;5.65;;;12.50;99.90;;;;;;4378064;32;20529;-65
2022/04/12 22:22:29;;;;;;;25.60;8.98;;;12.30;99.90;;;;;;4392060;32;20092;-66
2022/04/12 22:24:55;;;;;;;21.55;7.60;;;12.20;99.90;;;;;;4391500;32;20086;-63
2022/04/12 22:27:21;;;;;;;9.07;5.12;;;12.30;99.90;;;;;;4390109;32;20077;-63
2022/04/12 22:29:48;;;;;;;8.50;5.07;;;12.30;99.90;;;;;;4390066;32;20197;-64
2022/04/12 22:32:14;;;;;;;7.32;3.95;;;12.40;99.90;;;;;;4390194;32;20503;-64
2022/04/12 22:34:40;;;;;;;7.90;3.85;;;12.50;99.90;;;;;;4389635;32;20529;-65
2022/04/12 22:37:06;;;;;;;5.45;3.37;;;12.50;99.90;;;;;;4390748;32;20081;-65
2022/04/12 22:39:33;;;;;;;9.48;3.60;;;12.50;99.90;;;;;;4390225;32;20081;-64
2022/04/12 22:42:01;;;;;;;5.72;3.25;;;12.50;99.90;;;;;;4389949;32;20104;-65
2022/04/12 22:44:28;;;;;;;7.68;4.90;;;12.60;99.90;;;;;;4391263;32;20159;-65
2022/04/12 22:46:55;;;;;;;14.80;9.32;;;;;;;;;;4391882;32;20090;-64
2022/04/12 22:49:22;;;;;;;16.15;9.98;;;11.60;99.90;;;;;;4390917;32;20544;-65
2022/04/12 22:51:49;;;;;;;18.50;10.57;;;11.40;99.90;;;;;;4390483;32;20073;-65
2022/04/12 22:54:16;;;;;;;15.43;9.73;;;11.30;99.90;;;;;;4377248;32;20065;-65
2022/04/12 22:56:42;;;;;;;15.73;9.15;;;11.30;99.90;;;;;;4389623;32;20149;-65
2022/04/12 22:59:09;;;;;;;20.37;9.73;;;11.30;99.90;;;;;;4389967;32;20111;-65
2022/04/12 23:01:35;;;;;;;15.75;9.88;;;11.40;99.90;;;;;;4390057;32;20078;-65
2022/04/12 23:04:04;;;;;;;13.38;8.55;;;11.40;99.90;;;;;;4391280;32;20072;-65
2022/04/12 23:06:31;;;;;;;14.75;7.65;;;11.50;99.90;;;;;;4389960;32;20163;-64
2022/04/12 23:08:58;;;;;;;16.35;8.13;;;11.50;99.90;;;;;;4402240;32;20529;-65
2022/04/12 23:11:24;;;;;;;15.30;8.07;;;;;;;;;;4389962;32;20085;-64
2022/04/12 23:13:51;;;;;;;19.00;7.80;;;;;;;;;;4390221;32;20081;-64
2022/04/12 23:16:17;;;;;;;15.57;7.72;;;11.80;99.90;;;;;;4389794;32;20529;-65
2022/04/12 23:18:46;;;;;;;14.23;6.25;;;11.90;99.90;;;;;;4389829;32;20078;-65
2022/04/12 23:21:13;;;;;;;14.05;6.18;;;11.90;99.90;;;;;;4390969;32;20077;-64
2022/04/12 23:23:39;;;;;;;16.98;7.35;;;11.90;99.90;;;;;;4391146;32;20100;-66
2022/04/12 23:26:06;;;;;;;11.48;6.95;;;12.00;99.90;;;;;;4391214;32;20074;-65
2022/04/12 23:28:32;;;;;;;14.05;7.20;;;11.90;99.90;;;;;;4390027;32;20121;-65
2022/04/12 23:31:00;;;;;;;13.10;7.05;;;11.90;99.90;;;;;;4391188;32;20077;-65
2022/04/12 23:33:27;;;;;;;9.40;5.78;;;;;;;;;;4391069;32;20086;-64
2022/04/12 23:35:54;;;;;;;10.38;5.90;;;11.90;99.90;;;;;;4391139;32;20081;-64
2022/04/12 23:38:20;;;;;;;16.73;7.97;;;12.00;99.90;;;;;;4379591;32;20075;-64
2022/04/12 23:40:46;;;;;;;12.32;6.97;;;11.80;99.90;;;;;;4394984;32;20093;-63
2022/04/12 23:43:13;;;;;;;13.18;7.05;;;11.80;99.90;;;;;;4406346;32;20145;-64
2022/04/12 23:45:39;;;;;;;14.18;6.62;;;11.90;99.90;;;;;;4399541;32;20090;-65
2022/04/12 23:48:07;;;;;;;16.45;7.18;;;11.90;99.90;;;;;;4392691;32;20536;-65
2022/04/12 23:50:36;;;;;;;20.83;8.50;;;;;;;;;;4392183;32;20159;-63
2022/04/12 23:53:03;;;;;;;15.25;6.75;;;12.10;99.90;;;;;;4393020;32;20160;-65
2022/04/12 23:55:33;;;;;;;18.33;9.25;;;;;;;;;;4393754;32;20519;-65
2022/04/12 23:58:01;;;;;;;15.25;7.87;;;11.90;99.90;;;;;;4393489;32;20074;-64
